Time;durP1;ratioP1;P1;durP2;ratioP2;P2;SDS_P1;SDS_P2;PMS_P1;PMS_P2;Temp;Humidity;BMP_temperature;BMP_pressure;BME280_temperature;BME280_humidity;BME280_pressure;Samples;Min_cycle;Max_cycle;Signal;HPM_P1;HPM_P2
2024/01/31 00:01:33;;;;;;;9.20;8.30;;;11.60;1.00;;;;;;5103216;28;20421;-41
2024/01/31 00:03:59;;;;;;;11.77;8.40;;;11.60;1.00;;;;;;5120288;28;20429;-43
2024/01/31 00:06:26;;;;;;;8.70;7.90;;;11.50;1.00;;;;;;5102679;28;20429;-45
2024/01/31 00:08:51;;;;;;;9.33;8.30;;;11.50;1.00;;;;;;5103294;28;20494;-41
2024/01/31 00:11:17;;;;;;;9.57;8.63;;;11.50;1.00;;;;;;5121379;28;20401;-40
2024/01/31 00:13:43;;;;;;;9.10;8.30;;;11.50;1.00;;;;;;5104010;28;20206;-40
2024/01/31 00:16:09;;;;;;;10.10;8.83;;;11.50;1.00;;;;;;5087132;28;20180;-42
2024/01/31 00:18:35;;;;;;;9.53;8.50;;;11.40;1.00;;;;;;5086912;28;20549;-41
2024/01/31 00:21:03;;;;;;;9.53;8.63;;;11.40;1.00;;;;;;5103433;28;20253;-43
2024/01/31 00:23:29;;;;;;;8.93;8.03;;;11.40;1.00;;;;;;5103370;28;20429;-42
2024/01/31 00:25:55;;;;;;;11.13;9.13;;;11.40;1.00;;;;;;5104625;28;20412;-40
2024/01/31 00:28:22;;;;;;;8.80;8.00;;;11.40;1.00;;;;;;5103906;28;20477;-41
2024/01/31 00:30:48;;;;;;;11.57;9.70;;;11.40;1.00;;;;;;5103615;28;20709;-40
2024/01/31 00:33:13;;;;;;;10.10;9.13;;;11.30;1.00;;;;;;5102647;28;20453;-43
2024/01/31 00:35:39;;;;;;;11.03;9.90;;;11.30;1.00;;;;;;5122248;28;20433;-41
2024/01/31 00:38:05;;;;;;;11.30;10.30;;;11.30;1.00;;;;;;5120261;28;20175;-41
2024/01/31 00:40:31;;;;;;;10.40;9.40;;;11.30;1.00;;;;;;5102156;28;20184;-40
2024/01/31 00:43:00;;;;;;;10.43;9.43;;;11.30;1.00;;;;;;5102482;28;20183;-41
2024/01/31 00:45:25;;;;;;;12.67;11.17;;;11.30;1.00;;;;;;5121497;28;20500;-41
2024/01/31 00:47:52;;;;;;;11.27;10.13;;;11.30;1.00;;;;;;5087032;28;20445;-41
2024/01/31 00:50:18;;;;;;;11.03;9.80;;;11.30;1.00;;;;;;5087094;28;20278;-41
2024/01/31 00:52:44;;;;;;;11.07;9.97;;;11.20;1.00;;;;;;5087595;28;20457;-43
2024/01/31 00:55:10;;;;;;;11.87;10.43;;;11.20;1.00;;;;;;5103734;28;20230;-40
2024/01/31 00:57:36;;;;;;;10.87;9.77;;;11.20;1.00;;;;;;5103474;28;20444;-43
2024/01/31 01:00:08;;;;;;;12.40;11.03;;;11.20;1.00;;;;;;5086065;28;20418;-41
2024/01/31 01:02:36;;;;;;;10.33;9.33;;;11.20;4.80;;;;;;5086959;28;20180;-41
2024/01/31 01:05:03;;;;;;;11.03;9.90;;;11.20;13.00;;;;;;5119750;28;20843;-41
2024/01/31 01:07:28;;;;;;;11.80;9.80;;;11.20;27.20;;;;;;5083477;28;20441;-41
2024/01/31 01:09:58;;;;;;;11.70;9.53;;;11.20;99.80;;;;;;5085070;28;20783;-41
2024/01/31 01:12:24;;;;;;;10.30;9.27;;;11.20;1.00;;;;;;5086123;28;20632;-41
2024/01/31 01:14:51;;;;;;;10.60;9.50;;;11.20;1.00;;;;;;5085265;28;20560;-41
2024/01/31 01:17:17;;;;;;;10.03;9.03;;;11.20;1.00;;;;;;5085215;28;20426;-41
2024/01/31 01:19:43;;;;;;;10.67;9.67;;;11.20;1.00;;;;;;5083628;28;20429;-43
2024/01/31 01:22:11;;;;;;;10.43;9.40;;;11.20;1.00;;;;;;5083896;28;20271;-39
2024/01/31 01:24:40;;;;;;;11.13;10.00;;;11.20;5.40;;;;;;5084427;28;20282;-43
2024/01/31 01:27:06;;;;;;;10.70;9.60;;;11.20;13.80;;;;;;5097596;28;20474;-42
2024/01/31 01:29:31;;;;;;;11.27;9.10;;;11.20;22.20;;;;;;5097019;28;20430;-43
2024/01/31 01:31:57;;;;;;;10.30;9.00;;;11.20;36.50;;;;;;5096067;28;20194;-41
2024/01/31 01:34:23;;;;;;;9.80;8.80;;;11.20;58.40;;;;;;5097239;28;20471;-41
2024/01/31 01:36:48;;;;;;;10.77;9.67;;;11.20;55.90;;;;;;5079980;28;20466;-41
2024/01/31 01:39:15;;;;;;;10.27;9.17;;;11.20;72.30;;;;;;5098932;28;20168;-43
2024/01/31 01:41:41;;;;;;;10.17;9.20;;;11.20;80.30;;;;;;5080748;28;20212;-40
2024/01/31 01:44:06;;;;;;;10.30;9.20;;;11.20;91.10;;;;;;5099261;28;20438;-41
2024/01/31 01:46:35;;;;;;;9.67;8.67;;;11.20;99.90;;;;;;5100722;28;20188;-41
2024/01/31 01:49:00;;;;;;;10.00;9.00;;;11.20;99.90;;;;;;5099486;28;20230;-42
2024/01/31 01:51:26;;;;;;;10.70;9.60;;;11.20;98.60;;;;;;5098577;28;20441;-42
2024/01/31 01:53:54;;;;;;;11.10;10.00;;;11.20;98.30;;;;;;5081370;28;20657;-42
2024/01/31 01:56:20;;;;;;;10.40;9.40;;;11.20;97.90;;;;;;5095404;28;20446;-45
2024/01/31 01:58:49;;;;;;;10.63;9.53;;;11.20;94.70;;;;;;5082037;28;20544;-42
2024/01/31 02:01:17;;;;;;;10.43;9.43;;;11.20;99.90;;;;;;5061654;28;20940;-42
2024/01/31 02:03:43;;;;;;;11.27;10.20;;;11.20;99.90;;;;;;5078984;28;20473;-44
2024/01/31 02:06:09;;;;;;;13.67;11.90;;;11.10;99.90;;;;;;5078189;28;20443;-41
2024/01/31 02:08:34;;;;;;;12.57;11.03;;;11.10;99.90;;;;;;5077690;28;20714;-41
2024/01/31 02:11:01;;;;;;;13.30;11.97;;;11.10;99.90;;;;;;5076951;28;20520;-41
2024/01/31 02:13:28;;;;;;;12.83;10.73;;;11.10;99.90;;;;;;5077264;28;20185;-41
2024/01/31 02:15:56;;;;;;;11.80;10.23;;;11.10;99.90;;;;;;5077837;28;20449;-44
2024/01/31 02:18:27;;;;;;;14.67;11.00;;;11.10;99.90;;;;;;5078272;28;20492;-41
2024/01/31 02:20:52;;;;;;;14.13;11.90;;;11.10;99.90;;;;;;5077284;28;20427;-42
2024/01/31 02:23:18;;;;;;;14.40;10.93;;;11.00;99.90;;;;;;5077616;28;20507;-43
2024/01/31 02:25:45;;;;;;;10.40;9.37;;;11.00;99.90;;;;;;5076157;28;20173;-42
2024/01/31 02:28:10;;;;;;;13.37;10.40;;;11.00;99.90;;;;;;5092827;28;20979;-43
2024/01/31 02:30:36;;;;;;;10.93;9.80;;;11.00;99.90;;;;;;5078965;28;20513;-42
2024/01/31 02:33:02;;;;;;;11.50;10.17;;;11.00;99.90;;;;;;5096736;28;20531;-42
2024/01/31 02:35:31;;;;;;;11.20;10.00;;;11.00;99.90;;;;;;5096201;28;20215;-42
2024/01/31 02:37:57;;;;;;;11.50;10.30;;;11.00;99.90;;;;;;5096018;28;20418;-42
2024/01/31 02:40:23;;;;;;;11.63;8.87;;;11.00;99.90;;;;;;5097164;28;20426;-43
2024/01/31 02:42:49;;;;;;;10.70;9.70;;;11.00;99.90;;;;;;5096016;28;20852;-43
2024/01/31 02:45:14;;;;;;;11.77;10.57;;;11.00;99.90;;;;;;5096278;28;20203;-42
2024/01/31 02:47:40;;;;;;;13.73;11.40;;;11.00;99.90;;;;;;5077241;28;20208;-43
2024/01/31 02:50:06;;;;;;;10.17;9.07;;;11.00;99.90;;;;;;5096167;28;20527;-41
2024/01/31 02:52:31;;;;;;;12.00;10.10;;;11.00;99.90;;;;;;5078649;28;20241;-41
2024/01/31 02:54:58;;;;;;;10.77;9.70;;;10.90;99.90;;;;;;5097674;28;20212;-42
2024/01/31 02:57:24;;;;;;;10.97;9.83;;;10.90;99.90;;;;;;5097709;28;20207;-42
2024/01/31 02:59:50;;;;;;;10.00;9.00;;;10.90;99.90;;;;;;5096962;28;20740;-42
2024/01/31 03:02:17;;;;;;;12.23;9.80;;;10.90;99.90;;;;;;5096765;28;20411;-41
2024/01/31 03:04:43;;;;;;;9.87;8.87;;;10.90;99.90;;;;;;5096133;28;20153;-43
2024/01/31 03:07:08;;;;;;;10.17;9.17;;;10.90;99.90;;;;;;5097496;28;20519;-41
2024/01/31 03:09:34;;;;;;;10.23;9.20;;;10.90;99.90;;;;;;5096920;28;20526;-43
2024/01/31 03:11:59;;;;;;;8.90;8.00;;;10.90;99.90;;;;;;5094834;28;20234;-42
2024/01/31 03:14:26;;;;;;;8.60;7.73;;;10.90;99.90;;;;;;5095183;28;20200;-42
2024/01/31 03:16:52;;;;;;;8.87;7.97;;;10.80;99.90;;;;;;5094536;28;20222;-42
2024/01/31 03:19:17;;;;;;;9.70;8.60;;;10.80;99.90;;;;;;5093645;28;20426;-42
2024/01/31 03:21:43;;;;;;;10.90;8.20;;;10.80;99.90;;;;;;5094585;28;20173;-42
2024/01/31 03:24:10;;;;;;;9.37;8.47;;;10.80;99.90;;;;;;5095354;28;20542;-42
2024/01/31 03:26:35;;;;;;;9.80;8.17;;;10.80;99.90;;;;;;5096462;28;20636;-42
2024/01/31 03:29:02;;;;;;;8.93;8.03;;;10.80;99.90;;;;;;5095474;28;20407;-44
2024/01/31 03:31:28;;;;;;;10.00;8.23;;;10.80;99.90;;;;;;5093834;28;20202;-42
2024/01/31 03:33:54;;;;;;;9.57;8.67;;;10.80;99.90;;;;;;5095038;28;20565;-43
2024/01/31 03:36:19;;;;;;;7.90;7.20;;;10.80;99.90;;;;;;5077592;28;20530;-42
2024/01/31 03:38:45;;;;;;;8.30;7.30;;;10.70;99.90;;;;;;5097140;28;20191;-42
2024/01/31 03:41:10;;;;;;;8.50;7.70;;;10.70;99.90;;;;;;5094926;28;20233;-42
2024/01/31 03:43:36;;;;;;;10.33;8.53;;;10.70;1.00;;;;;;5105841;28;20512;-42
2024/01/31 03:46:05;;;;;;;8.70;7.53;;;10.70;1.00;;;;;;5093908;28;20176;-42
2024/01/31 03:48:31;;;;;;;8.90;8.00;;;10.70;1.00;;;;;;5099907;28;20187;-42
2024/01/31 03:50:58;;;;;;;9.27;8.37;;;10.70;1.00;;;;;;5114064;28;20410;-42
2024/01/31 03:53:25;;;;;;;9.00;8.10;;;10.70;1.00;;;;;;5114361;28;20228;-43
2024/01/31 03:55:50;;;;;;;9.43;8.50;;;10.70;1.00;;;;;;5115950;28;20454;-42
2024/01/31 03:58:16;;;;;;;8.50;7.70;;;10.70;1.00;;;;;;5116327;28;20509;-41
2024/01/31 04:00:42;;;;;;;9.70;8.70;;;10.70;1.00;;;;;;5116984;28;20180;-42
2024/01/31 04:03:07;;;;;;;9.87;8.83;;;10.70;1.00;;;;;;5116569;28;20429;-42
2024/01/31 04:05:33;;;;;;;9.77;8.67;;;10.70;1.00;;;;;;5115979;28;20172;-43
2024/01/31 04:07:59;;;;;;;13.37;9.27;;;10.70;1.00;;;;;;5116893;28;20191;-43
2024/01/31 04:10:36;;;;;;;8.97;8.07;;;10.70;1.00;;;;;;5116776;28;20593;-42
2024/01/31 04:13:02;;;;;;;8.77;7.87;;;10.70;1.00;;;;;;5117116;28;20176;-43
2024/01/31 04:15:27;;;;;;;9.20;8.30;;;10.70;1.00;;;;;;5096200;28;20764;-42
2024/01/31 04:17:53;;;;;;;10.03;8.90;;;10.70;1.00;;;;;;5114885;28;20195;-40
2024/01/31 04:20:19;;;;;;;8.47;7.63;;;10.70;1.00;;;;;;5116255;28;20571;-42
2024/01/31 04:22:45;;;;;;;8.67;7.93;;;10.70;1.00;;;;;;5115623;28;20172;-45
2024/01/31 04:25:11;;;;;;;10.47;9.47;;;10.70;1.00;;;;;;5115792;28;20432;-43
2024/01/31 04:27:36;;;;;;;9.30;8.40;;;10.70;1.00;;;;;;5115443;28;20489;-41
2024/01/31 04:30:02;;;;;;;9.67;8.67;;;10.60;1.00;;;;;;5116848;28;20255;-39
2024/01/31 04:32:28;;;;;;;9.00;8.10;;;10.70;1.00;;;;;;5117329;28;20630;-41
2024/01/31 04:34:53;;;;;;;9.20;8.30;;;10.60;1.00;;;;;;5117264;28;20473;-41
2024/01/31 04:37:19;;;;;;;9.63;8.63;;;10.70;1.00;;;;;;5116634;28;20195;-42
2024/01/31 04:39:44;;;;;;;10.20;9.30;;;10.60;1.00;;;;;;5116675;28;20203;-42
2024/01/31 04:42:10;;;;;;;10.53;9.53;;;10.60;1.00;;;;;;5117522;28;20164;-42
2024/01/31 04:44:36;;;;;;;14.00;11.67;;;10.60;1.00;;;;;;5118716;28;20171;-42
2024/01/31 04:47:01;;;;;;;24.50;16.37;;;10.60;1.00;;;;;;5117410;28;20422;-42
2024/01/31 04:49:27;;;;;;;25.10;16.97;;;10.60;8.00;;;;;;5118114;28;20486;-42
2024/01/31 04:51:53;;;;;;;23.90;16.17;;;10.60;13.50;;;;;;5098965;28;20203;-42
2024/01/31 04:54:19;;;;;;;18.93;14.00;;;10.60;1.00;;;;;;5117056;28;20449;-42
2024/01/31 04:56:44;;;;;;;21.93;15.93;;;10.60;1.00;;;;;;5116781;28;20405;-43
2024/01/31 04:59:10;;;;;;;19.10;14.33;;;10.60;1.00;;;;;;5117874;28;20254;-42
2024/01/31 05:01:35;;;;;;;18.33;13.40;;;10.60;1.00;;;;;;5100467;28;20419;-43
2024/01/31 05:04:01;;;;;;;21.20;16.20;;;10.60;1.00;;;;;;5118363;28;20176;-44
2024/01/31 05:06:28;;;;;;;31.10;19.70;;;10.60;1.00;;;;;;5118058;28;20296;-41
2024/01/31 05:08:54;;;;;;;34.40;21.50;;;10.60;17.10;;;;;;5119191;28;20164;-42
2024/01/31 05:11:19;;;;;;;37.67;22.97;;;10.60;44.10;;;;;;5101343;28;20763;-41
2024/01/31 05:13:45;;;;;;;44.97;27.97;;;10.60;93.60;;;;;;5118544;28;20225;-42
2024/01/31 05:16:10;;;;;;;40.40;26.13;;;10.60;94.90;;;;;;5100990;28;20274;-41
2024/01/31 05:18:36;;;;;;;39.30;24.43;;;10.60;95.90;;;;;;5099966;28;20504;-42
2024/01/31 05:21:02;;;;;;;43.30;27.43;;;10.60;99.90;;;;;;5117603;28;20194;-40
2024/01/31 05:23:29;;;;;;;40.87;27.73;;;10.50;99.90;;;;;;5116800;28;20500;-41
2024/01/31 05:25:54;;;;;;;42.00;28.30;;;10.50;99.90;;;;;;5115507;28;20425;-41
2024/01/31 05:28:20;;;;;;;41.70;26.70;;;10.50;99.90;;;;;;5117003;28;20495;-41
2024/01/31 05:30:46;;;;;;;33.93;22.20;;;10.60;99.90;;;;;;5116689;28;20263;-41
2024/01/31 05:33:12;;;;;;;31.47;21.23;;;10.50;99.90;;;;;;5118187;28;20271;-41
2024/01/31 05:35:40;;;;;;;24.00;18.70;;;10.50;99.90;;;;;;5118746;28;20491;-41
2024/01/31 05:38:07;;;;;;;23.93;18.50;;;10.50;99.90;;;;;;5118335;28;20179;-41
2024/01/31 05:40:33;;;;;;;21.60;15.60;;;10.50;92.70;;;;;;5116968;28;20455;-44
2024/01/31 05:42:58;;;;;;;18.67;13.97;;;10.60;87.70;;;;;;5117986;28;20732;-42
2024/01/31 05:45:24;;;;;;;17.37;14.60;;;10.50;64.70;;;;;;5118671;28;20176;-42
2024/01/31 05:47:50;;;;;;;16.33;13.77;;;10.60;67.90;;;;;;5117259;28;20276;-42
2024/01/31 05:50:15;;;;;;;15.37;13.13;;;10.50;61.10;;;;;;5115602;28;20207;-42
2024/01/31 05:52:41;;;;;;;15.17;13.37;;;10.50;55.60;;;;;;5116979;28;20473;-43
2024/01/31 05:55:06;;;;;;;14.53;12.23;;;10.60;48.60;;;;;;5117532;28;20227;-43
2024/01/31 05:57:33;;;;;;;12.93;11.33;;;10.60;42.80;;;;;;5098729;28;20347;-42
2024/01/31 05:59:58;;;;;;;13.60;11.37;;;10.50;58.50;;;;;;5116729;28;20233;-42
2024/01/31 06:02:24;;;;;;;12.90;11.60;;;10.50;51.10;;;;;;5115999;28;20437;-41
2024/01/31 06:04:50;;;;;;;13.80;11.00;;;10.50;54.00;;;;;;5115913;28;20184;-41
2024/01/31 06:07:17;;;;;;;12.63;11.37;;;10.50;55.10;;;;;;5098592;28;20187;-41
2024/01/31 06:09:43;;;;;;;12.63;11.33;;;10.60;68.20;;;;;;5096813;28;20791;-42
2024/01/31 06:12:09;;;;;;;12.50;11.20;;;10.50;98.60;;;;;;5114281;28;20500;-43
2024/01/31 06:14:37;;;;;;;11.60;10.47;;;10.50;99.90;;;;;;5115980;28;20630;-42
2024/01/31 06:17:03;;;;;;;11.00;10.03;;;10.50;99.90;;;;;;5115727;28;20176;-43
2024/01/31 06:19:29;;;;;;;12.73;11.43;;;10.50;99.90;;;;;;5115801;28;20493;-42
2024/01/31 06:21:55;;;;;;;13.43;12.13;;;10.50;99.90;;;;;;5115694;28;20884;-41
2024/01/31 06:24:20;;;;;;;12.10;10.93;;;10.50;99.90;;;;;;5114511;28;20838;-41
2024/01/31 06:26:46;;;;;;;12.27;10.97;;;10.50;99.90;;;;;;5115646;28;20254;-42
2024/01/31 06:29:17;;;;;;;12.67;10.83;;;10.50;99.90;;;;;;5115877;28;20183;-40
2024/01/31 06:31:47;;;;;;;11.00;9.90;;;10.50;99.90;;;;;;5097194;28;20211;-42
2024/01/31 06:34:13;;;;;;;11.33;10.10;;;10.50;99.90;;;;;;5115342;28;20462;-42
2024/01/31 06:36:39;;;;;;;11.13;10.03;;;10.50;99.90;;;;;;5115516;28;20425;-42
2024/01/31 06:39:06;;;;;;;10.87;9.90;;;10.50;99.90;;;;;;5081097;28;20406;-41
2024/01/31 06:41:34;;;;;;;11.50;10.40;;;10.50;99.90;;;;;;5107678;28;20458;-42
2024/01/31 06:44:00;;;;;;;11.63;10.60;;;10.50;99.90;;;;;;5092867;28;20418;-40
2024/01/31 06:46:25;;;;;;;11.40;10.17;;;10.50;99.90;;;;;;5092319;28;20418;-43
2024/01/31 06:48:51;;;;;;;11.13;9.93;;;10.50;99.90;;;;;;5075597;28;20208;-41
2024/01/31 06:51:17;;;;;;;10.70;9.63;;;10.50;99.90;;;;;;5092228;28;20183;-44
2024/01/31 06:53:42;;;;;;;11.77;10.67;;;10.50;99.90;;;;;;5092783;28;20203;-41
2024/01/31 06:56:15;;;;;;;14.30;10.53;;;10.50;99.90;;;;;;5092381;28;20172;-42
2024/01/31 06:58:41;;;;;;;15.57;10.93;;;10.50;99.90;;;;;;5094254;28;20236;-43
2024/01/31 07:01:06;;;;;;;11.67;10.50;;;10.50;99.90;;;;;;5093360;28;20430;-44
2024/01/31 07:03:32;;;;;;;10.80;9.67;;;10.50;99.90;;;;;;5093290;28;20180;-40
2024/01/31 07:05:57;;;;;;;11.87;10.70;;;10.50;99.90;;;;;;5093312;28;20172;-40
2024/01/31 07:08:23;;;;;;;11.50;10.40;;;10.50;99.90;;;;;;5095824;28;20188;-40
2024/01/31 07:10:48;;;;;;;13.03;11.73;;;10.50;99.90;;;;;;5095709;28;20181;-40
2024/01/31 07:13:14;;;;;;;12.10;10.57;;;10.50;99.90;;;;;;5096242;28;20204;-40
2024/01/31 07:15:39;;;;;;;14.73;12.40;;;10.50;99.90;;;;;;5097487;28;20288;-43
2024/01/31 07:18:05;;;;;;;12.07;10.77;;;10.50;99.90;;;;;;5096813;28;20251;-40
2024/01/31 07:20:31;;;;;;;12.17;10.80;;;10.50;99.90;;;;;;5078857;28;20192;-41
2024/01/31 07:22:57;;;;;;;11.47;10.40;;;10.50;99.90;;;;;;5078996;28;20422;-43
2024/01/31 07:25:22;;;;;;;10.93;9.83;;;10.60;99.90;;;;;;5095976;28;20222;-42
2024/01/31 07:27:48;;;;;;;13.67;12.27;;;10.60;99.90;;;;;;5076273;28;20618;-41
2024/01/31 07:30:14;;;;;;;15.33;11.60;;;10.60;99.90;;;;;;5096126;28;20585;-40
2024/01/31 07:32:40;;;;;;;13.63;11.40;;;10.60;99.90;;;;;;5078977;28;20192;-44
2024/01/31 07:35:09;;;;;;;11.20;10.20;;;10.60;99.90;;;;;;5095415;28;20243;-41
2024/01/31 07:37:36;;;;;;;13.57;10.87;;;10.60;99.90;;;;;;5094886;28;20467;-40
2024/01/31 07:40:03;;;;;;;13.23;10.73;;;10.70;99.90;;;;;;5075381;28;20467;-40
2024/01/31 07:42:29;;;;;;;12.30;10.40;;;10.70;99.90;;;;;;5095412;28;20756;-41
2024/01/31 07:44:54;;;;;;;12.63;10.00;;;10.70;99.90;;;;;;5077389;28;20418;-41
2024/01/31 07:47:20;;;;;;;12.23;10.93;;;10.70;99.90;;;;;;5094483;28;20189;-41
2024/01/31 07:49:45;;;;;;;13.07;10.30;;;10.70;99.90;;;;;;5060436;28;20203;-44
2024/01/31 07:52:11;;;;;;;11.00;10.00;;;10.70;99.90;;;;;;5078246;28;20180;-42
2024/01/31 07:54:37;;;;;;;10.37;9.37;;;10.80;99.90;;;;;;5061644;28;20656;-43
2024/01/31 07:57:03;;;;;;;11.73;9.13;;;10.80;99.90;;;;;;5096322;28;20642;-41
2024/01/31 07:59:28;;;;;;;10.00;9.00;;;10.80;99.90;;;;;;5060993;28;20188;-41
2024/01/31 08:01:54;;;;;;;10.93;9.27;;;10.80;99.90;;;;;;5095531;28;20423;-41
2024/01/31 08:04:19;;;;;;;9.33;8.40;;;10.90;99.90;;;;;;5077233;28;20235;-41
2024/01/31 08:06:45;;;;;;;9.63;8.63;;;10.90;99.90;;;;;;5077364;28;20582;-41
2024/01/31 08:09:12;;;;;;;8.90;8.00;;;10.90;99.90;;;;;;5095727;28;20439;-43
2024/01/31 08:11:44;;;;;;;10.20;8.73;;;10.90;99.90;;;;;;5098074;28;20495;-42
2024/01/31 08:14:10;;;;;;;9.27;8.40;;;10.90;99.90;;;;;;5098316;28;20496;-44
2024/01/31 08:16:37;;;;;;;9.00;8.10;;;11.00;99.90;;;;;;5117610;28;20602;-42
2024/01/31 08:19:03;;;;;;;11.33;8.70;;;11.00;99.90;;;;;;5101995;28;20541;-42
2024/01/31 08:21:32;;;;;;;9.03;8.20;;;11.00;99.90;;;;;;5118053;28;20428;-42
2024/01/31 08:23:58;;;;;;;11.33;10.17;;;11.00;81.40;;;;;;5116798;28;20708;-43
2024/01/31 08:26:23;;;;;;;9.67;8.77;;;11.00;65.60;;;;;;5117057;28;20799;-42
2024/01/31 08:28:49;;;;;;;9.67;8.67;;;11.00;55.00;;;;;;5100795;28;20539;-42
2024/01/31 08:31:15;;;;;;;8.57;7.77;;;11.00;36.60;;;;;;5117537;28;20180;-42
2024/01/31 08:33:40;;;;;;;9.13;8.33;;;11.00;22.00;;;;;;5115656;28;20188;-41
2024/01/31 08:36:06;;;;;;;9.73;8.83;;;11.00;12.40;;;;;;5115818;28;20338;-41
2024/01/31 08:38:32;;;;;;;9.87;8.83;;;11.10;10.90;;;;;;5097880;28;20207;-41
2024/01/31 08:40:57;;;;;;;8.47;7.67;;;11.10;14.70;;;;;;5116258;28;20421;-42
2024/01/31 08:43:23;;;;;;;8.93;8.03;;;11.10;3.40;;;;;;5115080;28;20183;-44
2024/01/31 08:45:48;;;;;;;10.00;9.00;;;11.10;1.00;;;;;;5117276;28;20176;-42
2024/01/31 08:48:14;;;;;;;8.73;7.93;;;11.10;1.00;;;;;;5118284;28;20720;-42
2024/01/31 08:50:39;;;;;;;11.60;7.97;;;11.20;1.00;;;;;;5119986;28;20320;-41
2024/01/31 08:53:05;;;;;;;9.03;8.13;;;11.20;1.00;;;;;;5119574;28;20666;-42
2024/01/31 08:55:31;;;;;;;11.00;8.50;;;11.30;1.00;;;;;;5119190;28;20215;-42
2024/01/31 08:57:56;;;;;;;8.70;7.80;;;11.40;1.00;;;;;;5119908;28;20183;-43
2024/01/31 09:00:22;;;;;;;9.37;8.40;;;11.40;1.00;;;;;;5102338;28;20168;-42
2024/01/31 09:02:47;;;;;;;10.20;9.20;;;11.50;1.00;;;;;;5120892;28;20242;-41
2024/01/31 09:05:13;;;;;;;10.23;9.13;;;11.50;1.00;;;;;;5118865;28;20252;-41
2024/01/31 09:07:38;;;;;;;11.90;8.10;;;11.50;1.00;;;;;;5118086;28;20244;-43
2024/01/31 09:10:04;;;;;;;6.67;5.83;;;11.60;1.00;;;;;;5098709;28;20203;-43
2024/01/31 09:12:30;;;;;;;3.43;3.10;;;11.70;99.90;;;;;;5116505;28;20192;-42
2024/01/31 09:14:56;;;;;;;5.53;3.03;;;12.20;1.00;;;;;;5098354;28;20461;-41
2024/01/31 09:17:22;;;;;;;4.17;3.63;;;12.70;99.90;;;;;;5118678;28;20422;-43
2024/01/31 09:19:49;;;;;;;6.73;5.03;;;13.30;98.80;;;;;;5098059;28;20532;-42
2024/01/31 09:22:15;;;;;;;5.27;4.77;;;13.80;1.00;;;;;;5116433;28;20203;-41
2024/01/31 09:24:40;;;;;;;7.63;4.70;;;14.20;1.00;;;;;;5115622;28;20768;-42
2024/01/31 09:27:06;;;;;;;7.67;5.00;;;14.60;99.90;;;;;;5097986;28;20636;-42
2024/01/31 09:29:31;;;;;;;6.40;4.33;;;14.90;1.00;;;;;;5116809;28;20203;-41
2024/01/31 09:31:57;;;;;;;6.50;5.00;;;15.20;99.90;;;;;;5118388;28;20271;-42
2024/01/31 09:34:24;;;;;;;6.70;4.80;;;15.50;1.00;;;;;;5117393;28;20206;-41
2024/01/31 09:36:49;;;;;;;7.57;5.00;;;15.70;1.00;;;;;;5100770;28;20172;-43
2024/01/31 09:39:15;;;;;;;5.67;5.17;;;15.90;44.60;;;;;;5118842;28;20417;-43
2024/01/31 09:41:41;;;;;;;7.53;5.37;;;16.00;99.90;;;;;;5119533;28;20200;-42
2024/01/31 09:44:06;;;;;;;5.67;4.90;;;16.20;1.00;;;;;;5118446;28;20711;-43
2024/01/31 09:46:32;;;;;;;6.60;5.83;;;16.30;26.30;;;;;;5118359;28;20262;-42
2024/01/31 09:48:58;;;;;;;6.93;6.07;;;16.40;1.00;;;;;;5116811;28;20243;-42
2024/01/31 09:51:25;;;;;;;6.90;6.20;;;16.50;99.90;;;;;;5098132;28;20184;-42
2024/01/31 09:53:53;;;;;;;8.50;6.60;;;16.60;1.00;;;;;;5117690;28;20195;-40
2024/01/31 09:56:19;;;;;;;6.30;5.80;;;16.70;1.00;;;;;;5099124;28;20750;-39
2024/01/31 09:58:46;;;;;;;6.13;5.53;;;16.80;99.90;;;;;;5116178;28;20429;-42
2024/01/31 10:01:12;;;;;;;7.80;5.50;;;16.90;99.90;;;;;;5114025;28;20745;-44
2024/01/31 10:03:38;;;;;;;6.33;5.73;;;17.00;99.90;;;;;;5115663;28;20468;-44
2024/01/31 10:06:05;;;;;;;7.20;5.53;;;17.10;99.90;;;;;;5117185;28;20261;-43
2024/01/31 10:08:30;;;;;;;6.10;5.50;;;17.20;99.90;;;;;;5116423;28;20224;-44
2024/01/31 10:10:56;;;;;;;8.13;5.67;;;17.40;99.90;;;;;;5115048;28;20418;-40
2024/01/31 10:13:22;;;;;;;6.43;5.33;;;17.60;92.90;;;;;;5115627;28;20202;-49
2024/01/31 10:15:47;;;;;;;6.07;5.47;;;17.80;1.00;;;;;;5116260;28;20276;-43
2024/01/31 10:18:15;;;;;;;6.63;6.00;;;17.90;1.00;;;;;;5116993;28;20224;-40
2024/01/31 10:20:40;;;;;;;7.03;6.13;;;18.10;1.00;;;;;;5097487;28;20215;-41
2024/01/31 10:23:06;;;;;;;7.03;6.00;;;18.20;1.00;;;;;;5116054;28;20457;-43
2024/01/31 10:25:31;;;;;;;9.60;6.60;;;18.20;1.00;;;;;;5115282;28;20190;-39
2024/01/31 10:27:57;;;;;;;7.80;6.13;;;18.40;99.90;;;;;;5116087;28;20530;-39
2024/01/31 10:30:23;;;;;;;7.43;6.33;;;18.40;99.90;;;;;;5116949;28;20451;-42
2024/01/31 10:32:49;;;;;;;5.97;5.37;;;18.50;99.90;;;;;;5117465;28;20172;-40
2024/01/31 10:35:15;;;;;;;7.03;6.10;;;18.50;99.90;;;;;;5114002;28;20219;-43
2024/01/31 10:37:40;;;;;;;6.23;5.60;;;18.60;99.90;;;;;;5096576;28;20513;-43
2024/01/31 10:40:10;;;;;;;7.00;6.17;;;18.70;99.90;;;;;;5096448;28;20434;-40
2024/01/31 10:42:37;;;;;;;6.77;6.13;;;18.70;99.90;;;;;;5114911;28;20243;-41
2024/01/31 10:45:04;;;;;;;6.30;5.70;;;18.70;99.90;;;;;;5097814;28;20409;-42
2024/01/31 10:47:29;;;;;;;7.17;6.47;;;18.70;99.90;;;;;;5116017;28;20486;-43
2024/01/31 10:49:55;;;;;;;8.33;6.00;;;18.70;99.90;;;;;;5095509;28;20478;-44
2024/01/31 10:52:24;;;;;;;7.43;6.73;;;18.70;99.90;;;;;;5115698;28;20216;-41
2024/01/31 10:54:53;;;;;;;7.60;6.90;;;18.70;99.90;;;;;;5097731;28;20512;-44
2024/01/31 10:57:20;;;;;;;7.93;6.87;;;18.70;99.90;;;;;;5095784;28;20406;-42
2024/01/31 10:59:49;;;;;;;7.40;6.70;;;18.60;99.90;;;;;;5098742;28;20484;-45
2024/01/31 11:02:15;;;;;;;8.40;7.70;;;18.40;99.20;;;;;;5098519;28;20441;-42
2024/01/31 11:04:42;;;;;;;9.30;7.67;;;18.20;43.30;;;;;;5115884;28;20437;-43
2024/01/31 11:07:20;;;;;;;8.43;7.53;;;17.90;26.20;;;;;;5096306;28;20449;-42
2024/01/31 11:09:46;;;;;;;7.83;7.03;;;17.60;15.80;;;;;;5115382;28;20430;-42
2024/01/31 11:12:14;;;;;;;10.27;7.40;;;17.40;7.60;;;;;;5114861;28;20422;-43
2024/01/31 11:14:44;;;;;;;9.63;7.77;;;17.20;5.60;;;;;;5115564;28;20472;-41
2024/01/31 11:17:22;;;;;;;8.83;7.30;;;17.00;3.50;;;;;;5113696;28;20782;-41
2024/01/31 11:19:56;;;;;;;8.30;7.50;;;16.90;1.00;;;;;;5113094;28;20421;-41
2024/01/31 11:22:22;;;;;;;8.47;7.67;;;16.70;1.00;;;;;;5113901;28;20460;-40
2024/01/31 11:24:49;;;;;;;8.30;7.50;;;16.60;1.80;;;;;;5094251;28;20439;-45
2024/01/31 11:27:15;;;;;;;8.93;7.83;;;16.50;1.80;;;;;;5111944;28;20235;-42
2024/01/31 11:29:42;;;;;;;9.60;8.50;;;16.40;2.70;;;;;;5115054;28;20426;-42
2024/01/31 11:32:09;;;;;;;9.20;7.67;;;16.30;2.20;;;;;;5114402;28;20482;-42
2024/01/31 11:34:36;;;;;;;9.00;8.17;;;16.20;3.90;;;;;;5113458;28;20469;-42
2024/01/31 11:37:01;;;;;;;9.47;7.87;;;16.10;6.80;;;;;;5095536;28;20478;-43
2024/01/31 11:39:27;;;;;;;9.07;8.17;;;16.00;8.40;;;;;;5114891;28;20441;-42
2024/01/31 11:41:54;;;;;;;10.10;7.77;;;16.00;9.70;;;;;;5115575;28;20207;-42
2024/01/31 11:44:19;;;;;;;8.30;7.50;;;15.90;11.50;;;;;;5097212;28;20183;-43
2024/01/31 11:46:45;;;;;;;8.53;7.57;;;15.90;13.50;;;;;;5116131;28;20444;-42
2024/01/31 11:49:11;;;;;;;10.80;7.60;;;15.80;15.80;;;;;;5114897;28;20187;-40
2024/01/31 11:51:37;;;;;;;7.30;6.60;;;15.80;18.00;;;;;;5116939;28;20175;-43
2024/01/31 11:54:04;;;;;;;8.57;7.87;;;15.80;20.30;;;;;;5119595;28;20939;-44
2024/01/31 11:56:30;;;;;;;8.77;7.87;;;15.80;22.70;;;;;;5101066;28;20433;-44
2024/01/31 11:58:57;;;;;;;7.97;7.27;;;15.80;24.20;;;;;;5119752;28;20425;-42
2024/01/31 12:01:23;;;;;;;10.33;9.23;;;15.90;25.90;;;;;;5101284;28;20433;-44
2024/01/31 12:03:50;;;;;;;15.50;12.80;;;16.00;27.40;;;;;;5100386;28;20421;-41
2024/01/31 12:06:18;;;;;;;19.50;17.50;;;16.10;28.70;;;;;;5120126;28;20412;-43
2024/01/31 12:08:47;;;;;;;17.47;15.83;;;16.10;28.70;;;;;;5117232;28;20452;-44
2024/01/31 12:11:14;;;;;;;16.77;15.17;;;16.30;29.00;;;;;;5100417;28;20755;-47
2024/01/31 12:13:40;;;;;;;14.27;12.87;;;16.40;28.60;;;;;;5099369;28;20496;-43
2024/01/31 12:16:07;;;;;;;13.70;12.17;;;16.50;28.20;;;;;;5101537;28;20914;-41
2024/01/31 12:18:33;;;;;;;11.90;10.20;;;16.60;27.30;;;;;;5102025;28;20175;-44
2024/01/31 12:21:01;;;;;;;10.70;9.70;;;16.80;26.00;;;;;;5100173;28;20449;-42
2024/01/31 12:23:26;;;;;;;10.67;9.57;;;17.10;24.30;;;;;;5117209;28;20249;-43
2024/01/31 12:25:52;;;;;;;13.10;8.73;;;17.30;24.10;;;;;;5100683;28;20484;-43
2024/01/31 12:28:18;;;;;;;9.63;7.43;;;18.20;22.20;;;;;;5115874;28;20242;-42
2024/01/31 12:30:44;;;;;;;8.70;7.80;;;19.00;15.60;;;;;;5116736;28;20440;-44
2024/01/31 12:33:09;;;;;;;7.07;6.47;;;19.60;1.00;;;;;;5099025;28;20435;-46
2024/01/31 12:35:35;;;;;;;7.87;6.50;;;20.00;1.00;;;;;;5115743;28;20588;-42